sensor_id;sensor_type;location;lat;lon;timestamp;P1;durP1;ratioP1;P2;durP2;ratioP2
42036;SDS011;30340;52.004;5.908;2023-05-13T00:01:35;4.05;;;3.42;;
42036;SDS011;30340;52.004;5.908;2023-05-13T00:04:06;4.25;;;3.20;;
42036;SDS011;30340;52.004;5.908;2023-05-13T00:06:32;4.00;;;3.30;;
42036;SDS011;30340;52.004;5.908;2023-05-13T00:08:59;4.32;;;3.45;;
42036;SDS011;30340;52.004;5.908;2023-05-13T00:11:24;4.40;;;3.47;;
42036;SDS011;30340;52.004;5.908;2023-05-13T00:13:50;4.10;;;3.25;;
42036;SDS011;30340;52.004;5.908;2023-05-13T00:16:16;4.80;;;3.45;;
42036;SDS011;30340;52.004;5.908;2023-05-13T00:18:41;4.97;;;3.58;;
42036;SDS011;30340;52.004;5.908;2023-05-13T00:21:07;4.90;;;3.50;;
42036;SDS011;30340;52.004;5.908;2023-05-13T00:23:36;4.38;;;3.58;;
42036;SDS011;30340;52.004;5.908;2023-05-13T00:26:01;5.30;;;3.60;;
42036;SDS011;30340;52.004;5.908;2023-05-13T00:28:27;5.82;;;3.50;;
42036;SDS011;30340;52.004;5.908;2023-05-13T00:30:53;5.78;;;3.70;;
42036;SDS011;30340;52.004;5.908;2023-05-13T00:33:18;8.38;;;3.53;;
42036;SDS011;30340;52.004;5.908;2023-05-13T00:35:44;5.38;;;3.63;;
42036;SDS011;30340;52.004;5.908;2023-05-13T00:38:09;5.15;;;3.72;;
42036;SDS011;30340;52.004;5.908;2023-05-13T00:40:38;4.38;;;3.95;;
42036;SDS011;30340;52.004;5.908;2023-05-13T00:43:04;4.03;;;3.40;;
42036;SDS011;30340;52.004;5.908;2023-05-13T00:45:30;6.20;;;3.85;;
42036;SDS011;30340;52.004;5.908;2023-05-13T00:47:55;5.32;;;3.80;;
42036;SDS011;30340;52.004;5.908;2023-05-13T00:50:22;6.20;;;3.90;;
42036;SDS011;30340;52.004;5.908;2023-05-13T00:52:48;5.10;;;3.95;;
42036;SDS011;30340;52.004;5.908;2023-05-13T00:55:15;5.03;;;3.72;;
42036;SDS011;30340;52.004;5.908;2023-05-13T00:57:41;4.88;;;3.50;;
42036;SDS011;30340;52.004;5.908;2023-05-13T01:00:07;5.72;;;3.55;;
42036;SDS011;30340;52.004;5.908;2023-05-13T01:02:38;4.63;;;3.40;;
42036;SDS011;30340;52.004;5.908;2023-05-13T01:10:43;4.15;;;3.70;;
42036;SDS011;30340;52.004;5.908;2023-05-13T01:13:15;5.75;;;4.00;;
42036;SDS011;30340;52.004;5.908;2023-05-13T01:15:52;5.25;;;3.92;;
42036;SDS011;30340;52.004;5.908;2023-05-13T01:18:27;5.40;;;3.88;;
42036;SDS011;30340;52.004;5.908;2023-05-13T01:20:57;4.78;;;4.13;;
42036;SDS011;30340;52.004;5.908;2023-05-13T01:23:25;4.65;;;3.90;;
42036;SDS011;30340;52.004;5.908;2023-05-13T01:25:51;5.30;;;3.85;;
42036;SDS011;30340;52.004;5.908;2023-05-13T01:28:16;4.15;;;3.75;;
42036;SDS011;30340;52.004;5.908;2023-05-13T01:30:42;4.82;;;3.75;;
42036;SDS011;30340;52.004;5.908;2023-05-13T01:33:09;4.85;;;3.70;;
42036;SDS011;30340;52.004;5.908;2023-05-13T01:35:35;4.28;;;3.70;;
42036;SDS011;30340;52.004;5.908;2023-05-13T01:38:01;6.15;;;3.90;;
42036;SDS011;30340;52.004;5.908;2023-05-13T01:40:27;4.82;;;4.00;;
42036;SDS011;30340;52.004;5.908;2023-05-13T01:42:53;5.43;;;4.05;;
42036;SDS011;30340;52.004;5.908;2023-05-13T01:45:19;5.50;;;4.55;;
42036;SDS011;30340;52.004;5.908;2023-05-13T01:47:45;5.45;;;4.43;;
42036;SDS011;30340;52.004;5.908;2023-05-13T01:50:10;6.60;;;4.07;;
42036;SDS011;30340;52.004;5.908;2023-05-13T01:52:36;5.38;;;3.67;;
42036;SDS011;30340;52.004;5.908;2023-05-13T01:55:01;6.20;;;4.32;;
42036;SDS011;30340;52.004;5.908;2023-05-13T01:57:27;6.40;;;4.40;;
42036;SDS011;30340;52.004;5.908;2023-05-13T01:59:53;5.20;;;3.70;;
42036;SDS011;30340;52.004;5.908;2023-05-13T02:02:18;4.45;;;3.47;;
42036;SDS011;30340;52.004;5.908;2023-05-13T02:04:44;4.88;;;3.78;;
42036;SDS011;30340;52.004;5.908;2023-05-13T02:07:09;5.07;;;4.20;;
42036;SDS011;30340;52.004;5.908;2023-05-13T02:09:35;5.93;;;4.88;;
42036;SDS011;30340;52.004;5.908;2023-05-13T02:12:00;5.97;;;4.35;;
42036;SDS011;30340;52.004;5.908;2023-05-13T02:14:26;4.88;;;3.88;;
42036;SDS011;30340;52.004;5.908;2023-05-13T02:16:51;5.57;;;4.22;;
42036;SDS011;30340;52.004;5.908;2023-05-13T02:19:17;5.53;;;3.97;;
42036;SDS011;30340;52.004;5.908;2023-05-13T02:21:43;4.93;;;4.13;;
42036;SDS011;30340;52.004;5.908;2023-05-13T02:24:09;5.40;;;4.20;;
42036;SDS011;30340;52.004;5.908;2023-05-13T02:26:35;5.63;;;4.47;;
42036;SDS011;30340;52.004;5.908;2023-05-13T02:29:01;6.22;;;3.97;;
42036;SDS011;30340;52.004;5.908;2023-05-13T02:31:26;7.93;;;4.65;;
42036;SDS011;30340;52.004;5.908;2023-05-13T02:33:52;6.03;;;4.00;;
42036;SDS011;30340;52.004;5.908;2023-05-13T02:36:18;5.95;;;4.63;;
42036;SDS011;30340;52.004;5.908;2023-05-13T02:38:43;7.15;;;4.50;;
42036;SDS011;30340;52.004;5.908;2023-05-13T02:41:09;4.68;;;4.00;;
42036;SDS011;30340;52.004;5.908;2023-05-13T02:43:35;4.78;;;3.95;;
42036;SDS011;30340;52.004;5.908;2023-05-13T02:46:01;5.20;;;4.13;;
42036;SDS011;30340;52.004;5.908;2023-05-13T02:48:27;6.30;;;4.53;;
42036;SDS011;30340;52.004;5.908;2023-05-13T02:50:53;10.50;;;5.18;;
42036;SDS011;30340;52.004;5.908;2023-05-13T02:53:18;5.70;;;4.15;;
42036;SDS011;30340;52.004;5.908;2023-05-13T02:55:44;6.30;;;4.60;;
42036;SDS011;30340;52.004;5.908;2023-05-13T02:58:09;4.85;;;4.30;;
42036;SDS011;30340;52.004;5.908;2023-05-13T03:00:35;7.30;;;4.20;;
42036;SDS011;30340;52.004;5.908;2023-05-13T03:03:01;6.00;;;4.88;;
42036;SDS011;30340;52.004;5.908;2023-05-13T03:05:26;5.45;;;4.63;;
42036;SDS011;30340;52.004;5.908;2023-05-13T03:07:52;5.10;;;4.60;;
42036;SDS011;30340;52.004;5.908;2023-05-13T03:10:17;5.63;;;4.70;;
42036;SDS011;30340;52.004;5.908;2023-05-13T03:12:43;6.03;;;4.60;;
42036;SDS011;30340;52.004;5.908;2023-05-13T03:15:08;6.43;;;4.78;;
42036;SDS011;30340;52.004;5.908;2023-05-13T03:17:35;6.03;;;4.93;;
42036;SDS011;30340;52.004;5.908;2023-05-13T03:20:00;6.80;;;5.18;;
42036;SDS011;30340;52.004;5.908;2023-05-13T03:22:26;7.18;;;6.20;;
42036;SDS011;30340;52.004;5.908;2023-05-13T03:24:51;8.50;;;5.72;;
42036;SDS011;30340;52.004;5.908;2023-05-13T03:27:17;5.55;;;4.85;;
42036;SDS011;30340;52.004;5.908;2023-05-13T03:29:43;6.70;;;4.88;;
42036;SDS011;30340;52.004;5.908;2023-05-13T03:32:08;6.47;;;5.40;;
42036;SDS011;30340;52.004;5.908;2023-05-13T03:34:34;7.63;;;5.75;;
42036;SDS011;30340;52.004;5.908;2023-05-13T03:37:01;6.75;;;5.05;;
42036;SDS011;30340;52.004;5.908;2023-05-13T03:39:26;6.30;;;5.35;;
42036;SDS011;30340;52.004;5.908;2023-05-13T03:41:52;9.52;;;4.93;;
42036;SDS011;30340;52.004;5.908;2023-05-13T03:44:17;8.38;;;5.57;;
42036;SDS011;30340;52.004;5.908;2023-05-13T03:46:43;6.72;;;5.13;;
42036;SDS011;30340;52.004;5.908;2023-05-13T03:49:08;6.65;;;5.45;;
42036;SDS011;30340;52.004;5.908;2023-05-13T03:51:34;6.55;;;5.35;;
42036;SDS011;30340;52.004;5.908;2023-05-13T03:53:59;8.10;;;5.38;;
42036;SDS011;30340;52.004;5.908;2023-05-13T03:56:26;7.50;;;5.95;;
42036;SDS011;30340;52.004;5.908;2023-05-13T03:58:52;7.15;;;5.57;;
42036;SDS011;30340;52.004;5.908;2023-05-13T04:01:17;7.93;;;5.80;;
42036;SDS011;30340;52.004;5.908;2023-05-13T04:03:43;7.47;;;5.63;;
42036;SDS011;30340;52.004;5.908;2023-05-13T04:06:10;6.88;;;6.07;;
42036;SDS011;30340;52.004;5.908;2023-05-13T04:08:36;7.43;;;5.82;;
42036;SDS011;30340;52.004;5.908;2023-05-13T04:11:01;7.20;;;5.57;;
42036;SDS011;30340;52.004;5.908;2023-05-13T04:13:27;6.03;;;5.43;;
42036;SDS011;30340;52.004;5.908;2023-05-13T04:15:52;8.20;;;6.00;;
42036;SDS011;30340;52.004;5.908;2023-05-13T04:18:19;8.45;;;6.50;;
42036;SDS011;30340;52.004;5.908;2023-05-13T04:20:45;7.55;;;5.97;;
42036;SDS011;30340;52.004;5.908;2023-05-13T04:23:10;6.47;;;5.78;;
42036;SDS011;30340;52.004;5.908;2023-05-13T04:25:36;6.70;;;6.00;;
42036;SDS011;30340;52.004;5.908;2023-05-13T04:28:02;6.72;;;5.57;;
42036;SDS011;30340;52.004;5.908;2023-05-13T04:30:27;8.13;;;6.10;;
42036;SDS011;30340;52.004;5.908;2023-05-13T04:32:53;8.75;;;6.78;;
42036;SDS011;30340;52.004;5.908;2023-05-13T04:35:18;7.95;;;6.60;;
42036;SDS011;30340;52.004;5.908;2023-05-13T04:37:44;7.80;;;6.82;;
42036;SDS011;30340;52.004;5.908;2023-05-13T04:40:10;7.88;;;6.50;;
42036;SDS011;30340;52.004;5.908;2023-05-13T04:42:35;7.57;;;6.78;;
42036;SDS011;30340;52.004;5.908;2023-05-13T04:45:01;8.57;;;6.35;;
42036;SDS011;30340;52.004;5.908;2023-05-13T04:47:27;9.07;;;7.28;;
42036;SDS011;30340;52.004;5.908;2023-05-13T04:49:53;7.70;;;6.90;;
42036;SDS011;30340;52.004;5.908;2023-05-13T04:52:18;8.93;;;7.07;;
42036;SDS011;30340;52.004;5.908;2023-05-13T04:54:44;7.55;;;6.75;;
42036;SDS011;30340;52.004;5.908;2023-05-13T04:57:09;8.85;;;6.68;;
42036;SDS011;30340;52.004;5.908;2023-05-13T04:59:35;7.47;;;6.40;;
42036;SDS011;30340;52.004;5.908;2023-05-13T05:02:00;8.73;;;6.82;;
42036;SDS011;30340;52.004;5.908;2023-05-13T05:04:26;9.07;;;7.10;;
42036;SDS011;30340;52.004;5.908;2023-05-13T05:06:52;8.80;;;6.93;;
42036;SDS011;30340;52.004;5.908;2023-05-13T05:09:18;9.70;;;6.53;;
42036;SDS011;30340;52.004;5.908;2023-05-13T05:11:43;7.18;;;6.47;;
42036;SDS011;30340;52.004;5.908;2023-05-13T05:14:09;7.55;;;6.28;;
42036;SDS011;30340;52.004;5.908;2023-05-13T05:16:35;9.07;;;6.93;;
42036;SDS011;30340;52.004;5.908;2023-05-13T05:19:00;7.53;;;6.72;;
42036;SDS011;30340;52.004;5.908;2023-05-13T05:21:26;8.45;;;6.72;;
42036;SDS011;30340;52.004;5.908;2023-05-13T05:23:51;8.15;;;6.50;;
42036;SDS011;30340;52.004;5.908;2023-05-13T05:26:17;7.65;;;6.30;;
42036;SDS011;30340;52.004;5.908;2023-05-13T05:28:43;9.40;;;7.05;;
42036;SDS011;30340;52.004;5.908;2023-05-13T05:31:09;8.18;;;6.70;;
42036;SDS011;30340;52.004;5.908;2023-05-13T05:33:35;9.23;;;7.07;;
42036;SDS011;30340;52.004;5.908;2023-05-13T05:36:01;9.63;;;6.88;;
42036;SDS011;30340;52.004;5.908;2023-05-13T05:38:26;7.43;;;6.50;;
42036;SDS011;30340;52.004;5.908;2023-05-13T05:40:52;7.50;;;6.18;;
42036;SDS011;30340;52.004;5.908;2023-05-13T05:43:18;7.80;;;5.50;;
42036;SDS011;30340;52.004;5.908;2023-05-13T05:45:44;6.82;;;5.45;;
42036;SDS011;30340;52.004;5.908;2023-05-13T05:48:09;7.55;;;5.65;;
42036;SDS011;30340;52.004;5.908;2023-05-13T05:50:35;7.55;;;6.13;;
42036;SDS011;30340;52.004;5.908;2023-05-13T05:53:01;7.13;;;6.05;;
42036;SDS011;30340;52.004;5.908;2023-05-13T05:55:26;7.43;;;5.53;;
42036;SDS011;30340;52.004;5.908;2023-05-13T05:57:53;6.82;;;5.97;;
42036;SDS011;30340;52.004;5.908;2023-05-13T06:00:20;7.90;;;5.43;;
42036;SDS011;30340;52.004;5.908;2023-05-13T06:02:45;7.43;;;6.38;;
42036;SDS011;30340;52.004;5.908;2023-05-13T06:05:12;8.07;;;6.00;;
42036;SDS011;30340;52.004;5.908;2023-05-13T06:07:38;7.53;;;6.03;;
42036;SDS011;30340;52.004;5.908;2023-05-13T06:10:04;7.07;;;5.30;;
42036;SDS011;30340;52.004;5.908;2023-05-13T06:12:30;5.93;;;5.32;;
42036;SDS011;30340;52.004;5.908;2023-05-13T06:14:56;6.85;;;5.85;;
42036;SDS011;30340;52.004;5.908;2023-05-13T06:17:22;5.82;;;5.03;;
42036;SDS011;30340;52.004;5.908;2023-05-13T06:19:48;8.25;;;5.95;;
42036;SDS011;30340;52.004;5.908;2023-05-13T06:22:13;6.10;;;5.10;;
42036;SDS011;30340;52.004;5.908;2023-05-13T06:24:39;7.60;;;5.32;;
42036;SDS011;30340;52.004;5.908;2023-05-13T06:27:06;7.32;;;6.10;;
42036;SDS011;30340;52.004;5.908;2023-05-13T06:29:32;6.57;;;5.65;;
42036;SDS011;30340;52.004;5.908;2023-05-13T06:31:57;6.72;;;5.78;;
42036;SDS011;30340;52.004;5.908;2023-05-13T06:34:24;6.15;;;5.18;;
42036;SDS011;30340;52.004;5.908;2023-05-13T06:36:50;7.20;;;5.20;;
42036;SDS011;30340;52.004;5.908;2023-05-13T06:39:15;8.85;;;5.40;;
42036;SDS011;30340;52.004;5.908;2023-05-13T06:41:41;6.93;;;5.63;;
42036;SDS011;30340;52.004;5.908;2023-05-13T06:44:06;6.85;;;5.07;;
42036;SDS011;30340;52.004;5.908;2023-05-13T06:46:32;7.85;;;5.30;;
42036;SDS011;30340;52.004;5.908;2023-05-13T06:48:58;6.13;;;4.93;;
42036;SDS011;30340;52.004;5.908;2023-05-13T06:51:23;7.97;;;5.85;;
42036;SDS011;30340;52.004;5.908;2023-05-13T06:53:51;8.52;;;5.70;;
42036;SDS011;30340;52.004;5.908;2023-05-13T06:56:17;6.60;;;5.80;;
42036;SDS011;30340;52.004;5.908;2023-05-13T06:58:43;7.55;;;5.40;;
42036;SDS011;30340;52.004;5.908;2023-05-13T07:01:09;6.60;;;5.57;;
42036;SDS011;30340;52.004;5.908;2023-05-13T07:03:34;6.38;;;5.20;;
42036;SDS011;30340;52.004;5.908;2023-05-13T07:06:01;5.93;;;4.85;;
42036;SDS011;30340;52.004;5.908;2023-05-13T07:08:28;5.93;;;5.32;;
42036;SDS011;30340;52.004;5.908;2023-05-13T07:10:53;8.38;;;4.88;;
42036;SDS011;30340;52.004;5.908;2023-05-13T07:13:19;6.88;;;5.30;;
42036;SDS011;30340;52.004;5.908;2023-05-13T07:15:45;6.93;;;5.18;;
42036;SDS011;30340;52.004;5.908;2023-05-13T07:18:11;5.80;;;4.97;;
42036;SDS011;30340;52.004;5.908;2023-05-13T07:20:37;6.22;;;5.00;;
42036;SDS011;30340;52.004;5.908;2023-05-13T07:23:02;6.22;;;4.45;;
42036;SDS011;30340;52.004;5.908;2023-05-13T07:25:28;9.95;;;5.10;;
42036;SDS011;30340;52.004;5.908;2023-05-13T07:27:53;5.35;;;4.43;;
42036;SDS011;30340;52.004;5.908;2023-05-13T07:30:19;6.22;;;4.93;;
42036;SDS011;30340;52.004;5.908;2023-05-13T07:32:45;6.78;;;4.75;;
42036;SDS011;30340;52.004;5.908;2023-05-13T07:35:10;5.80;;;4.20;;
42036;SDS011;30340;52.004;5.908;2023-05-13T07:37:36;5.20;;;4.40;;
42036;SDS011;30340;52.004;5.908;2023-05-13T07:40:02;4.95;;;4.03;;
42036;SDS011;30340;52.004;5.908;2023-05-13T07:42:29;5.65;;;4.10;;
42036;SDS011;30340;52.004;5.908;2023-05-13T07:44:54;5.28;;;3.88;;
42036;SDS011;30340;52.004;5.908;2023-05-13T07:47:20;4.88;;;3.70;;
42036;SDS011;30340;52.004;5.908;2023-05-13T07:49:45;5.97;;;3.88;;
42036;SDS011;30340;52.004;5.908;2023-05-13T07:52:11;6.38;;;4.10;;
42036;SDS011;30340;52.004;5.908;2023-05-13T07:54:37;5.25;;;3.65;;
42036;SDS011;30340;52.004;5.908;2023-05-13T07:57:02;4.70;;;3.90;;
42036;SDS011;30340;52.004;5.908;2023-05-13T07:59:28;4.65;;;3.65;;
42036;SDS011;30340;52.004;5.908;2023-05-13T08:01:54;3.97;;;3.53;;
42036;SDS011;30340;52.004;5.908;2023-05-13T08:04:19;6.10;;;3.88;;
42036;SDS011;30340;52.004;5.908;2023-05-13T08:06:45;3.90;;;3.47;;
42036;SDS011;30340;52.004;5.908;2023-05-13T08:09:10;7.03;;;3.70;;
42036;SDS011;30340;52.004;5.908;2023-05-13T08:11:37;5.15;;;3.95;;
42036;SDS011;30340;52.004;5.908;2023-05-13T08:14:03;5.13;;;3.70;;
42036;SDS011;30340;52.004;5.908;2023-05-13T08:16:29;5.43;;;3.40;;
42036;SDS011;30340;52.004;5.908;2023-05-13T08:18:55;7.13;;;3.60;;
42036;SDS011;30340;52.004;5.908;2023-05-13T08:21:21;4.15;;;3.10;;
42036;SDS011;30340;52.004;5.908;2023-05-13T08:23:48;5.28;;;3.38;;
42036;SDS011;30340;52.004;5.908;2023-05-13T08:26:14;5.28;;;3.65;;
42036;SDS011;30340;52.004;5.908;2023-05-13T08:28:40;5.75;;;3.42;;
42036;SDS011;30340;52.004;5.908;2023-05-13T08:31:06;5.45;;;3.00;;
42036;SDS011;30340;52.004;5.908;2023-05-13T08:33:32;4.35;;;3.10;;
42036;SDS011;30340;52.004;5.908;2023-05-13T08:35:58;5.38;;;3.33;;
42036;SDS011;30340;52.004;5.908;2023-05-13T08:38:24;3.88;;;3.03;;
42036;SDS011;30340;52.004;5.908;2023-05-13T08:40:50;5.68;;;3.53;;
42036;SDS011;30340;52.004;5.908;2023-05-13T08:43:16;6.50;;;3.22;;
42036;SDS011;30340;52.004;5.908;2023-05-13T08:45:44;5.63;;;3.40;;
42036;SDS011;30340;52.004;5.908;2023-05-13T08:48:11;3.55;;;3.00;;
42036;SDS011;30340;52.004;5.908;2023-05-13T08:50:39;3.38;;;2.90;;
42036;SDS011;30340;52.004;5.908;2023-05-13T08:53:05;3.38;;;2.90;;
42036;SDS011;30340;52.004;5.908;2023-05-13T08:55:32;3.75;;;2.60;;
42036;SDS011;30340;52.004;5.908;2023-05-13T08:57:57;4.68;;;2.85;;
42036;SDS011;30340;52.004;5.908;2023-05-13T09:00:23;4.28;;;3.03;;
42036;SDS011;30340;52.004;5.908;2023-05-13T09:02:49;4.90;;;2.90;;
42036;SDS011;30340;52.004;5.908;2023-05-13T09:05:15;4.10;;;2.88;;
42036;SDS011;30340;52.004;5.908;2023-05-13T09:07:42;2.97;;;2.63;;
42036;SDS011;30340;52.004;5.908;2023-05-13T09:10:08;5.22;;;2.53;;
42036;SDS011;30340;52.004;5.908;2023-05-13T09:12:53;4.60;;;2.70;;
42036;SDS011;30340;52.004;5.908;2023-05-13T09:15:20;3.13;;;2.30;;
42036;SDS011;30340;52.004;5.908;2023-05-13T09:17:50;4.32;;;2.72;;
42036;SDS011;30340;52.004;5.908;2023-05-13T09:20:20;3.70;;;2.88;;
42036;SDS011;30340;52.004;5.908;2023-05-13T09:22:50;8.27;;;5.38;;
42036;SDS011;30340;52.004;5.908;2023-05-13T09:25:17;8.10;;;5.68;;
42036;SDS011;30340;52.004;5.908;2023-05-13T09:27:48;6.03;;;3.90;;
42036;SDS011;30340;52.004;5.908;2023-05-13T09:30:16;3.97;;;2.90;;
42036;SDS011;30340;52.004;5.908;2023-05-13T09:32:44;5.43;;;3.00;;
42036;SDS011;30340;52.004;5.908;2023-05-13T09:35:35;5.40;;;3.00;;
42036;SDS011;30340;52.004;5.908;2023-05-13T09:38:12;3.65;;;3.00;;
42036;SDS011;30340;52.004;5.908;2023-05-13T09:40:52;4.70;;;2.97;;
42036;SDS011;30340;52.004;5.908;2023-05-13T09:43:22;5.93;;;3.30;;
42036;SDS011;30340;52.004;5.908;2023-05-13T09:45:56;5.20;;;3.08;;
42036;SDS011;30340;52.004;5.908;2023-05-13T09:48:27;3.97;;;2.63;;
42036;SDS011;30340;52.004;5.908;2023-05-13T09:50:54;3.80;;;2.97;;
42036;SDS011;30340;52.004;5.908;2023-05-13T09:53:21;3.75;;;2.92;;
42036;SDS011;30340;52.004;5.908;2023-05-13T09:55:48;4.18;;;2.97;;
42036;SDS011;30340;52.004;5.908;2023-05-13T09:58:15;4.35;;;2.90;;
42036;SDS011;30340;52.004;5.908;2023-05-13T10:00:43;6.10;;;2.80;;
42036;SDS011;30340;52.004;5.908;2023-05-13T10:03:08;5.68;;;3.40;;
42036;SDS011;30340;52.004;5.908;2023-05-13T10:05:35;3.50;;;2.97;;
42036;SDS011;30340;52.004;5.908;2023-05-13T10:08:02;4.72;;;2.70;;
42036;SDS011;30340;52.004;5.908;2023-05-13T10:10:29;6.15;;;3.15;;
42036;SDS011;30340;52.004;5.908;2023-05-13T10:13:00;4.07;;;2.75;;
42036;SDS011;30340;52.004;5.908;2023-05-13T10:15:29;4.57;;;2.40;;
42036;SDS011;30340;52.004;5.908;2023-05-13T10:17:58;8.00;;;2.90;;
42036;SDS011;30340;52.004;5.908;2023-05-13T10:20:25;6.43;;;3.22;;
42036;SDS011;30340;52.004;5.908;2023-05-13T10:22:51;4.05;;;3.20;;
42036;SDS011;30340;52.004;5.908;2023-05-13T10:25:17;5.18;;;2.90;;
42036;SDS011;30340;52.004;5.908;2023-05-13T10:27:43;4.50;;;3.15;;
42036;SDS011;30340;52.004;5.908;2023-05-13T10:30:09;4.57;;;2.83;;
42036;SDS011;30340;52.004;5.908;2023-05-13T10:32:36;3.70;;;2.50;;
42036;SDS011;30340;52.004;5.908;2023-05-13T10:35:05;5.00;;;3.13;;
42036;SDS011;30340;52.004;5.908;2023-05-13T10:37:36;3.53;;;2.55;;
42036;SDS011;30340;52.004;5.908;2023-05-13T10:40:16;7.43;;;3.30;;
42036;SDS011;30340;52.004;5.908;2023-05-13T10:42:55;3.97;;;3.05;;
42036;SDS011;30340;52.004;5.908;2023-05-13T10:45:43;5.63;;;2.85;;
42036;SDS011;30340;52.004;5.908;2023-05-13T10:48:10;3.33;;;2.63;;
42036;SDS011;30340;52.004;5.908;2023-05-13T10:50:37;5.32;;;3.05;;
42036;SDS011;30340;52.004;5.908;2023-05-13T10:53:06;3.88;;;2.80;;
42036;SDS011;30340;52.004;5.908;2023-05-13T10:55:39;4.65;;;2.67;;
42036;SDS011;30340;52.004;5.908;2023-05-13T10:58:11;6.57;;;2.92;;
42036;SDS011;30340;52.004;5.908;2023-05-13T11:00:39;4.45;;;2.40;;
42036;SDS011;30340;52.004;5.908;2023-05-13T11:05:34;4.47;;;2.35;;
42036;SDS011;30340;52.004;5.908;2023-05-13T11:08:02;3.75;;;3.20;;
42036;SDS011;30340;52.004;5.908;2023-05-13T11:10:28;5.68;;;3.10;;
42036;SDS011;30340;52.004;5.908;2023-05-13T11:15:47;4.35;;;3.22;;
42036;SDS011;30340;52.004;5.908;2023-05-13T11:18:15;3.83;;;3.30;;
42036;SDS011;30340;52.004;5.908;2023-05-13T11:20:43;4.15;;;2.78;;
42036;SDS011;30340;52.004;5.908;2023-05-13T11:23:18;3.40;;;2.83;;
42036;SDS011;30340;52.004;5.908;2023-05-13T11:25:44;6.68;;;2.97;;
42036;SDS011;30340;52.004;5.908;2023-05-13T11:28:14;4.70;;;2.60;;
42036;SDS011;30340;52.004;5.908;2023-05-13T11:30:51;4.55;;;2.60;;
42036;SDS011;30340;52.004;5.908;2023-05-13T11:33:19;4.57;;;2.95;;
42036;SDS011;30340;52.004;5.908;2023-05-13T11:35:51;3.53;;;2.80;;
42036;SDS011;30340;52.004;5.908;2023-05-13T11:38:23;4.05;;;2.40;;
42036;SDS011;30340;52.004;5.908;2023-05-13T11:40:49;5.55;;;3.00;;
42036;SDS011;30340;52.004;5.908;2023-05-13T11:43:18;5.35;;;3.10;;
42036;SDS011;30340;52.004;5.908;2023-05-13T11:45:45;4.63;;;2.90;;
42036;SDS011;30340;52.004;5.908;2023-05-13T11:48:21;4.13;;;3.10;;
42036;SDS011;30340;52.004;5.908;2023-05-13T11:50:48;4.38;;;2.90;;
42036;SDS011;30340;52.004;5.908;2023-05-13T11:53:19;4.20;;;3.00;;
42036;SDS011;30340;52.004;5.908;2023-05-13T11:55:46;2.95;;;2.40;;
42036;SDS011;30340;52.004;5.908;2023-05-13T11:58:12;4.13;;;2.53;;
42036;SDS011;30340;52.004;5.908;2023-05-13T12:00:39;3.92;;;3.03;;
42036;SDS011;30340;52.004;5.908;2023-05-13T12:03:08;6.18;;;2.75;;
42036;SDS011;30340;52.004;5.908;2023-05-13T12:05:35;3.70;;;2.42;;
42036;SDS011;30340;52.004;5.908;2023-05-13T12:08:01;5.20;;;2.38;;
42036;SDS011;30340;52.004;5.908;2023-05-13T12:10:27;4.35;;;2.50;;
42036;SDS011;30340;52.004;5.908;2023-05-13T12:12:52;4.75;;;2.72;;
42036;SDS011;30340;52.004;5.908;2023-05-13T12:15:19;4.18;;;3.05;;
42036;SDS011;30340;52.004;5.908;2023-05-13T12:17:46;3.53;;;2.83;;
42036;SDS011;30340;52.004;5.908;2023-05-13T12:20:14;3.00;;;2.47;;
42036;SDS011;30340;52.004;5.908;2023-05-13T12:30:41;7.85;;;2.50;;
42036;SDS011;30340;52.004;5.908;2023-05-13T12:33:15;4.13;;;2.67;;
42036;SDS011;30340;52.004;5.908;2023-05-13T12:35:42;4.60;;;2.85;;
42036;SDS011;30340;52.004;5.908;2023-05-13T12:38:12;6.63;;;3.60;;
42036;SDS011;30340;52.004;5.908;2023-05-13T12:40:40;4.07;;;2.50;;
42036;SDS011;30340;52.004;5.908;2023-05-13T12:43:05;8.38;;;2.50;;
42036;SDS011;30340;52.004;5.908;2023-05-13T12:45:32;3.85;;;2.70;;
42036;SDS011;30340;52.004;5.908;2023-05-13T12:47:59;3.72;;;2.10;;
42036;SDS011;30340;52.004;5.908;2023-05-13T12:50:25;3.42;;;2.28;;
42036;SDS011;30340;52.004;5.908;2023-05-13T12:52:51;2.92;;;2.13;;
42036;SDS011;30340;52.004;5.908;2023-05-13T12:55:17;3.03;;;2.20;;
42036;SDS011;30340;52.004;5.908;2023-05-13T12:57:47;4.75;;;2.40;;
42036;SDS011;30340;52.004;5.908;2023-05-13T13:00:22;3.88;;;2.35;;
42036;SDS011;30340;52.004;5.908;2023-05-13T13:02:49;3.58;;;2.38;;
42036;SDS011;30340;52.004;5.908;2023-05-13T13:05:15;4.18;;;2.60;;
42036;SDS011;30340;52.004;5.908;2023-05-13T13:07:41;4.25;;;2.60;;
42036;SDS011;30340;52.004;5.908;2023-05-13T13:10:07;3.08;;;2.40;;
42036;SDS011;30340;52.004;5.908;2023-05-13T13:12:33;3.17;;;2.30;;
42036;SDS011;30340;52.004;5.908;2023-05-13T13:14:58;3.85;;;2.20;;
42036;SDS011;30340;52.004;5.908;2023-05-13T13:17:25;3.50;;;2.30;;
42036;SDS011;30340;52.004;5.908;2023-05-13T13:19:50;6.15;;;2.40;;
42036;SDS011;30340;52.004;5.908;2023-05-13T13:22:16;2.58;;;2.35;;
42036;SDS011;30340;52.004;5.908;2023-05-13T13:24:41;3.70;;;2.45;;
42036;SDS011;30340;52.004;5.908;2023-05-13T13:27:09;3.75;;;2.40;;
42036;SDS011;30340;52.004;5.908;2023-05-13T13:29:35;4.68;;;2.65;;
42036;SDS011;30340;52.004;5.908;2023-05-13T13:32:01;3.80;;;2.22;;
42036;SDS011;30340;52.004;5.908;2023-05-13T13:34:27;3.25;;;2.35;;
42036;SDS011;30340;52.004;5.908;2023-05-13T13:36:52;4.50;;;2.70;;
42036;SDS011;30340;52.004;5.908;2023-05-13T13:39:18;3.95;;;2.55;;
42036;SDS011;30340;52.004;5.908;2023-05-13T13:41:43;3.55;;;2.58;;
42036;SDS011;30340;52.004;5.908;2023-05-13T13:44:11;2.72;;;2.17;;
42036;SDS011;30340;52.004;5.908;2023-05-13T13:46:36;3.47;;;2.40;;
42036;SDS011;30340;52.004;5.908;2023-05-13T13:49:02;3.15;;;2.40;;
42036;SDS011;30340;52.004;5.908;2023-05-13T13:51:28;6.00;;;2.55;;
42036;SDS011;30340;52.004;5.908;2023-05-13T13:53:53;4.32;;;2.65;;
42036;SDS011;30340;52.004;5.908;2023-05-13T13:56:19;3.15;;;2.50;;
42036;SDS011;30340;52.004;5.908;2023-05-13T13:58:45;3.83;;;2.47;;
42036;SDS011;30340;52.004;5.908;2023-05-13T14:01:10;5.22;;;2.17;;
42036;SDS011;30340;52.004;5.908;2023-05-13T14:03:36;6.00;;;2.35;;
42036;SDS011;30340;52.004;5.908;2023-05-13T14:06:01;4.82;;;2.78;;
42036;SDS011;30340;52.004;5.908;2023-05-13T14:08:27;4.03;;;2.50;;
42036;SDS011;30340;52.004;5.908;2023-05-13T14:10:53;10.68;;;2.80;;
42036;SDS011;30340;52.004;5.908;2023-05-13T14:13:18;6.50;;;2.75;;
42036;SDS011;30340;52.004;5.908;2023-05-13T14:15:44;3.67;;;2.22;;
42036;SDS011;30340;52.004;5.908;2023-05-13T14:18:10;3.55;;;2.08;;
42036;SDS011;30340;52.004;5.908;2023-05-13T14:20:35;2.60;;;2.38;;
42036;SDS011;30340;52.004;5.908;2023-05-13T14:23:02;3.65;;;2.55;;
42036;SDS011;30340;52.004;5.908;2023-05-13T14:25:28;2.80;;;2.50;;
42036;SDS011;30340;52.004;5.908;2023-05-13T14:27:53;3.35;;;2.30;;
42036;SDS011;30340;52.004;5.908;2023-05-13T14:30:19;4.28;;;2.55;;
42036;SDS011;30340;52.004;5.908;2023-05-13T14:32:44;3.85;;;2.75;;
42036;SDS011;30340;52.004;5.908;2023-05-13T14:35:11;4.80;;;2.40;;
42036;SDS011;30340;52.004;5.908;2023-05-13T14:37:37;3.55;;;2.70;;
42036;SDS011;30340;52.004;5.908;2023-05-13T14:40:03;4.45;;;2.88;;
42036;SDS011;30340;52.004;5.908;2023-05-13T14:42:28;3.00;;;2.30;;
42036;SDS011;30340;52.004;5.908;2023-05-13T14:44:54;4.47;;;2.63;;
42036;SDS011;30340;52.004;5.908;2023-05-13T14:47:20;3.30;;;2.40;;
42036;SDS011;30340;52.004;5.908;2023-05-13T14:49:45;6.60;;;2.50;;
42036;SDS011;30340;52.004;5.908;2023-05-13T14:52:11;2.60;;;2.13;;
42036;SDS011;30340;52.004;5.908;2023-05-13T14:54:36;3.45;;;2.47;;
42036;SDS011;30340;52.004;5.908;2023-05-13T14:57:02;3.13;;;2.38;;
42036;SDS011;30340;52.004;5.908;2023-05-13T14:59:29;4.18;;;2.45;;
42036;SDS011;30340;52.004;5.908;2023-05-13T15:01:55;2.75;;;2.47;;
42036;SDS011;30340;52.004;5.908;2023-05-13T15:04:20;3.22;;;2.60;;